aviador You're here:

KSLB Decoded Metar

STORM LAKE in IA, USA
Report Time2017-06-29 12:15:00
UTC Time2017-06-29 12:26:53
Flight Rules vfr VFR
WindCalm
Visibility9999 m
Phenomena:N/A
Clouds:N/A
Expected CloudBase > 800 ft AGL from Temp-Dew spread
CeilingNone
Temp20°C (ISA +8)
Dew Point18°C (88% RH)
QNH1008 hPa
Density Alt2,867 ft
Elevation1,490 ft
Report Wrong Elevation
Raw Report
KSLB 291215Z AUTO 00000KT 10SM CLR 20/18 A2976 RMK AO2=

Extra information for KSLB:More info

Metar Taf Metar & Taf Last 4 Metars F.Rules Stats Wind Profile Meteogram Temp Stats Airport Information Weather charts Add Link Nearby VenuesMetar ALERT Operation Metar Decoded Social comments

AIRNAV info for KSLB